sensor_id;sensor_type;location;lat;lon;timestamp;pressure;altitude;pressure_sealevel;temperature;humidity
55347;BME280;41218;55.700;38.270;2023-04-09T00:03:58;100912.16;;;4.30;61.88
55347;BME280;41218;55.700;38.270;2023-04-09T00:08:58;100923.94;;;4.30;62.04
55347;BME280;41218;55.700;38.270;2023-04-09T00:13:59;100927.25;;;4.27;62.05
55347;BME280;41218;55.700;38.270;2023-04-09T00:18:59;100918.91;;;4.18;61.72
55347;BME280;41218;55.700;38.270;2023-04-09T00:24:00;100925.19;;;4.19;62.05
55347;BME280;41218;55.700;38.270;2023-04-09T00:29:00;100921.53;;;4.10;61.81
55347;BME280;41218;55.700;38.270;2023-04-09T00:34:01;100921.00;;;4.08;62.07
55347;BME280;41218;55.700;38.270;2023-04-09T00:39:01;100928.69;;;4.06;62.25
55347;BME280;41218;55.700;38.270;2023-04-09T00:44:02;100928.19;;;4.04;62.31
55347;BME280;41218;55.700;38.270;2023-04-09T00:49:02;100930.69;;;4.00;61.93
55347;BME280;41218;55.700;38.270;2023-04-09T00:54:03;100933.72;;;3.98;62.10
55347;BME280;41218;55.700;38.270;2023-04-09T00:59:03;100935.44;;;3.94;62.22
55347;BME280;41218;55.700;38.270;2023-04-09T01:04:04;100912.88;;;3.84;62.16
55347;BME280;41218;55.700;38.270;2023-04-09T01:09:12;100923.50;;;3.85;62.25
55347;BME280;41218;55.700;38.270;2023-04-09T01:19:44;100930.47;;;3.77;62.72
55347;BME280;41218;55.700;38.270;2023-04-09T01:25:01;100926.78;;;3.68;62.33
55347;BME280;41218;55.700;38.270;2023-04-09T01:30:04;100933.28;;;3.72;62.26
55347;BME280;41218;55.700;38.270;2023-04-09T01:35:06;100931.94;;;3.70;62.39
55347;BME280;41218;55.700;38.270;2023-04-09T01:40:08;100937.19;;;3.66;62.47
55347;BME280;41218;55.700;38.270;2023-04-09T01:45:09;100933.13;;;3.64;62.78
55347;BME280;41218;55.700;38.270;2023-04-09T01:50:11;100933.69;;;3.60;62.67
55347;BME280;41218;55.700;38.270;2023-04-09T01:55:11;100938.38;;;3.60;62.48
55347;BME280;41218;55.700;38.270;2023-04-09T02:00:12;100922.84;;;3.55;62.63
55347;BME280;41218;55.700;38.270;2023-04-09T02:05:16;100933.25;;;3.53;62.64
55347;BME280;41218;55.700;38.270;2023-04-09T02:10:19;100926.25;;;3.47;62.66
55347;BME280;41218;55.700;38.270;2023-04-09T02:15:22;100930.59;;;3.48;62.53
55347;BME280;41218;55.700;38.270;2023-04-09T02:20:23;100924.88;;;3.45;62.81
55347;BME280;41218;55.700;38.270;2023-04-09T02:25:25;100925.47;;;3.41;63.01
55347;BME280;41218;55.700;38.270;2023-04-09T02:30:25;100924.97;;;3.39;63.05
55347;BME280;41218;55.700;38.270;2023-04-09T02:35:26;100917.84;;;3.38;62.74
55347;BME280;41218;55.700;38.270;2023-04-09T02:40:27;100919.78;;;3.38;62.79
55347;BME280;41218;55.700;38.270;2023-04-09T02:45:27;100920.91;;;3.37;62.79
55347;BME280;41218;55.700;38.270;2023-04-09T02:50:28;100905.22;;;3.24;62.98
55347;BME280;41218;55.700;38.270;2023-04-09T02:55:28;100925.25;;;3.38;62.66
55347;BME280;41218;55.700;38.270;2023-04-09T03:00:29;100925.53;;;3.36;62.97
55347;BME280;41218;55.700;38.270;2023-04-09T03:05:29;100931.00;;;3.36;62.63
55347;BME280;41218;55.700;38.270;2023-04-09T03:10:30;100927.47;;;3.36;62.92
55347;BME280;41218;55.700;38.270;2023-04-09T03:15:30;100934.25;;;3.38;62.92
55347;BME280;41218;55.700;38.270;2023-04-09T03:20:31;100935.09;;;3.39;62.60
55347;BME280;41218;55.700;38.270;2023-04-09T03:25:31;100928.78;;;3.38;62.94
55347;BME280;41218;55.700;38.270;2023-04-09T03:30:32;100932.56;;;3.42;62.69
55347;BME280;41218;55.700;38.270;2023-04-09T03:35:32;100926.00;;;3.44;62.88
55347;BME280;41218;55.700;38.270;2023-04-09T03:40:33;100934.69;;;3.51;62.84
55347;BME280;41218;55.700;38.270;2023-04-09T03:45:35;100940.66;;;3.53;62.53
55347;BME280;41218;55.700;38.270;2023-04-09T03:50:41;100932.47;;;3.53;62.79
55347;BME280;41218;55.700;38.270;2023-04-09T03:55:41;100938.38;;;3.60;62.88
55347;BME280;41218;55.700;38.270;2023-04-09T04:00:42;100940.97;;;3.70;62.93
55347;BME280;41218;55.700;38.270;2023-04-09T04:05:42;100929.97;;;3.75;62.53
55347;BME280;41218;55.700;38.270;2023-04-09T04:10:43;100940.44;;;3.87;62.79
55347;BME280;41218;55.700;38.270;2023-04-09T04:15:44;100935.38;;;3.99;63.28
55347;BME280;41218;55.700;38.270;2023-04-09T04:20:44;100931.56;;;4.14;63.13
55347;BME280;41218;55.700;38.270;2023-04-09T04:25:45;100919.84;;;4.28;63.50
55347;BME280;41218;55.700;38.270;2023-04-09T04:30:45;100926.84;;;4.53;63.04
55347;BME280;41218;55.700;38.270;2023-04-09T04:35:45;100922.41;;;4.71;63.15
55347;BME280;41218;55.700;38.270;2023-04-09T04:40:46;100919.00;;;4.93;63.25
55347;BME280;41218;55.700;38.270;2023-04-09T04:45:47;100923.88;;;5.10;62.62
55347;BME280;41218;55.700;38.270;2023-04-09T04:50:54;100934.22;;;5.27;62.87
55347;BME280;41218;55.700;38.270;2023-04-09T04:55:55;100908.03;;;5.34;62.80
55347;BME280;41218;55.700;38.270;2023-04-09T05:00:55;100917.94;;;5.58;62.09
55347;BME280;41218;55.700;38.270;2023-04-09T05:05:56;100921.25;;;5.82;62.23
55347;BME280;41218;55.700;38.270;2023-04-09T05:10:56;100919.16;;;6.02;62.29
55347;BME280;41218;55.700;38.270;2023-04-09T05:15:57;100928.94;;;6.31;62.12
55347;BME280;41218;55.700;38.270;2023-04-09T05:20:57;100926.84;;;6.59;61.66
55347;BME280;41218;55.700;38.270;2023-04-09T05:25:58;100931.34;;;6.86;60.96
55347;BME280;41218;55.700;38.270;2023-04-09T05:30:58;100930.66;;;7.12;60.96
55347;BME280;41218;55.700;38.270;2023-04-09T05:35:59;100931.56;;;7.38;60.58
55347;BME280;41218;55.700;38.270;2023-04-09T05:41:00;100931.44;;;7.61;60.34
55347;BME280;41218;55.700;38.270;2023-04-09T05:46:00;100923.38;;;7.73;60.02
55347;BME280;41218;55.700;38.270;2023-04-09T05:51:01;100933.75;;;7.85;59.61
55347;BME280;41218;55.700;38.270;2023-04-09T05:56:02;100932.63;;;7.95;59.77
55347;BME280;41218;55.700;38.270;2023-04-09T06:01:02;100942.66;;;8.08;59.38
55347;BME280;41218;55.700;38.270;2023-04-09T06:06:03;100944.47;;;8.21;59.26
55347;BME280;41218;55.700;38.270;2023-04-09T06:11:07;100944.63;;;8.34;58.54
55347;BME280;41218;55.700;38.270;2023-04-09T06:16:08;100948.50;;;8.50;58.52
55347;BME280;41218;55.700;38.270;2023-04-09T06:21:09;100950.91;;;8.60;58.39
55347;BME280;41218;55.700;38.270;2023-04-09T06:26:10;100948.47;;;8.76;58.33
55347;BME280;41218;55.700;38.270;2023-04-09T06:31:10;100951.34;;;8.89;58.12
55347;BME280;41218;55.700;38.270;2023-04-09T06:36:11;100954.03;;;9.06;57.69
55347;BME280;41218;55.700;38.270;2023-04-09T06:41:11;100947.50;;;9.19;57.48
55347;BME280;41218;55.700;38.270;2023-04-09T06:46:14;100954.06;;;9.36;57.12
55347;BME280;41218;55.700;38.270;2023-04-09T06:51:16;100951.88;;;9.50;56.76
55347;BME280;41218;55.700;38.270;2023-04-09T06:56:17;100950.53;;;9.65;56.32
55347;BME280;41218;55.700;38.270;2023-04-09T07:01:18;100954.31;;;9.81;55.79
55347;BME280;41218;55.700;38.270;2023-04-09T07:06:19;100959.44;;;9.92;55.47
55347;BME280;41218;55.700;38.270;2023-04-09T07:11:19;100963.22;;;10.08;55.01
55347;BME280;41218;55.700;38.270;2023-04-09T07:16:20;100963.19;;;10.29;54.64
55347;BME280;41218;55.700;38.270;2023-04-09T07:21:21;100973.31;;;10.46;54.07
55347;BME280;41218;55.700;38.270;2023-04-09T07:26:21;100977.59;;;10.56;53.87
55347;BME280;41218;55.700;38.270;2023-04-09T07:31:22;100971.13;;;10.73;53.52
55347;BME280;41218;55.700;38.270;2023-04-09T07:36:22;100972.75;;;10.86;53.01
55347;BME280;41218;55.700;38.270;2023-04-09T07:41:23;100973.94;;;10.97;52.55
55347;BME280;41218;55.700;38.270;2023-04-09T07:46:23;100975.56;;;11.11;52.32
55347;BME280;41218;55.700;38.270;2023-04-09T07:51:24;100979.72;;;11.17;51.65
55347;BME280;41218;55.700;38.270;2023-04-09T07:56:24;100962.31;;;11.16;51.71
55347;BME280;41218;55.700;38.270;2023-04-09T08:01:25;100972.72;;;11.32;51.18
55347;BME280;41218;55.700;38.270;2023-04-09T08:06:25;100978.38;;;11.48;50.87
55347;BME280;41218;55.700;38.270;2023-04-09T08:11:28;100970.41;;;11.58;50.66
55347;BME280;41218;55.700;38.270;2023-04-09T08:16:28;100965.53;;;11.80;50.58
55347;BME280;41218;55.700;38.270;2023-04-09T08:21:29;100960.56;;;11.98;50.16
55347;BME280;41218;55.700;38.270;2023-04-09T08:26:31;100952.09;;;12.19;49.41
55347;BME280;41218;55.700;38.270;2023-04-09T08:31:32;100962.34;;;12.31;48.57
55347;BME280;41218;55.700;38.270;2023-04-09T08:36:33;100953.19;;;12.30;48.42
55347;BME280;41218;55.700;38.270;2023-04-09T08:41:41;100949.69;;;12.46;47.49
55347;BME280;41218;55.700;38.270;2023-04-09T08:46:43;100944.97;;;12.62;47.44
55347;BME280;41218;55.700;38.270;2023-04-09T08:51:47;100933.47;;;12.76;46.16
55347;BME280;41218;55.700;38.270;2023-04-09T08:56:48;100941.53;;;12.97;46.61
55347;BME280;41218;55.700;38.270;2023-04-09T09:02:05;100945.84;;;13.10;44.54
55347;BME280;41218;55.700;38.270;2023-04-09T09:07:06;100938.13;;;13.19;46.15
55347;BME280;41218;55.700;38.270;2023-04-09T09:12:07;100937.53;;;13.26;45.72
55347;BME280;41218;55.700;38.270;2023-04-09T09:17:07;100933.56;;;13.27;45.24
55347;BME280;41218;55.700;38.270;2023-04-09T09:22:08;100936.13;;;13.32;45.36
55347;BME280;41218;55.700;38.270;2023-04-09T09:27:10;100920.25;;;13.33;44.93
55347;BME280;41218;55.700;38.270;2023-04-09T09:32:12;100927.94;;;13.39;43.93
55347;BME280;41218;55.700;38.270;2023-04-09T09:37:26;100906.34;;;13.49;44.11
55347;BME280;41218;55.700;38.270;2023-04-09T09:42:30;100918.75;;;13.71;43.86
55347;BME280;41218;55.700;38.270;2023-04-09T09:47:33;100907.78;;;13.78;42.95
55347;BME280;41218;55.700;38.270;2023-04-09T09:52:35;100921.03;;;13.85;42.57
55347;BME280;41218;55.700;38.270;2023-04-09T09:57:38;100905.00;;;13.78;42.50
55347;BME280;41218;55.700;38.270;2023-04-09T10:02:48;100911.75;;;13.77;41.86
55347;BME280;41218;55.700;38.270;2023-04-09T10:07:56;100899.88;;;13.80;41.67
55347;BME280;41218;55.700;38.270;2023-04-09T10:12:58;100894.13;;;13.89;42.80
55347;BME280;41218;55.700;38.270;2023-04-09T10:17:59;100898.59;;;13.93;42.38
55347;BME280;41218;55.700;38.270;2023-04-09T10:23:02;100902.03;;;14.06;41.49
55347;BME280;41218;55.700;38.270;2023-04-09T10:28:16;100901.31;;;14.09;41.25
55347;BME280;41218;55.700;38.270;2023-04-09T10:33:21;100894.81;;;14.01;40.86
55347;BME280;41218;55.700;38.270;2023-04-09T10:38:48;100892.53;;;14.07;40.75
55347;BME280;41218;55.700;38.270;2023-04-09T10:43:50;100883.44;;;14.10;41.91
55347;BME280;41218;55.700;38.270;2023-04-09T10:49:07;100894.66;;;14.14;40.36
55347;BME280;41218;55.700;38.270;2023-04-09T10:59:34;100891.00;;;14.10;41.10
55347;BME280;41218;55.700;38.270;2023-04-09T11:09:57;100884.97;;;14.27;40.99
55347;BME280;41218;55.700;38.270;2023-04-09T11:14:58;100886.66;;;14.32;40.98
55347;BME280;41218;55.700;38.270;2023-04-09T11:19:58;100885.84;;;14.31;40.75
55347;BME280;41218;55.700;38.270;2023-04-09T11:24:59;100881.47;;;14.30;40.78
55347;BME280;41218;55.700;38.270;2023-04-09T11:30:00;100881.47;;;14.30;40.90
55347;BME280;41218;55.700;38.270;2023-04-09T11:35:01;100871.81;;;14.24;40.54
55347;BME280;41218;55.700;38.270;2023-04-09T11:40:01;100863.72;;;14.15;40.88
55347;BME280;41218;55.700;38.270;2023-04-09T11:45:03;100862.66;;;14.23;40.71
55347;BME280;41218;55.700;38.270;2023-04-09T11:50:05;100862.72;;;14.27;41.09
55347;BME280;41218;55.700;38.270;2023-04-09T11:55:08;100859.78;;;14.39;41.14
55347;BME280;41218;55.700;38.270;2023-04-09T12:00:13;100856.00;;;14.51;40.18
55347;BME280;41218;55.700;38.270;2023-04-09T12:05:22;100848.53;;;14.55;39.98
55347;BME280;41218;55.700;38.270;2023-04-09T12:10:28;100846.16;;;14.54;40.01
55347;BME280;41218;55.700;38.270;2023-04-09T12:15:34;100837.16;;;14.41;39.79
55347;BME280;41218;55.700;38.270;2023-04-09T12:20:39;100830.94;;;14.48;39.76
55347;BME280;41218;55.700;38.270;2023-04-09T12:25:42;100838.34;;;14.40;40.22
55347;BME280;41218;55.700;38.270;2023-04-09T12:30:43;100824.19;;;14.26;39.83
55347;BME280;41218;55.700;38.270;2023-04-09T12:35:44;100839.44;;;14.35;39.90
55347;BME280;41218;55.700;38.270;2023-04-09T12:40:44;100836.88;;;14.46;40.05
55347;BME280;41218;55.700;38.270;2023-04-09T12:45:45;100827.41;;;14.51;39.64
55347;BME280;41218;55.700;38.270;2023-04-09T12:51:06;100823.59;;;14.59;39.52
55347;BME280;41218;55.700;38.270;2023-04-09T12:56:26;100823.16;;;14.57;39.47
55347;BME280;41218;55.700;38.270;2023-04-09T13:01:27;100823.81;;;14.50;39.66
55347;BME280;41218;55.700;38.270;2023-04-09T13:06:27;100821.03;;;14.50;39.71
55347;BME280;41218;55.700;38.270;2023-04-09T13:11:28;100821.19;;;14.57;39.82
55347;BME280;41218;55.700;38.270;2023-04-09T13:16:37;100810.19;;;14.65;39.45
55347;BME280;41218;55.700;38.270;2023-04-09T13:21:37;100816.63;;;14.69;39.57
55347;BME280;41218;55.700;38.270;2023-04-09T13:26:44;100810.91;;;14.61;39.45
55347;BME280;41218;55.700;38.270;2023-04-09T13:31:44;100820.81;;;14.59;39.48
55347;BME280;41218;55.700;38.270;2023-04-09T13:36:47;100817.81;;;14.48;39.65
55347;BME280;41218;55.700;38.270;2023-04-09T13:41:48;100816.88;;;14.40;39.75
55347;BME280;41218;55.700;38.270;2023-04-09T13:47:07;100815.94;;;14.33;39.90
55347;BME280;41218;55.700;38.270;2023-04-09T13:52:28;100810.63;;;14.24;40.21
55347;BME280;41218;55.700;38.270;2023-04-09T13:57:47;100802.22;;;14.20;39.87
55347;BME280;41218;55.700;38.270;2023-04-09T14:02:48;100807.50;;;14.26;40.07
55347;BME280;41218;55.700;38.270;2023-04-09T14:07:48;100803.66;;;14.34;39.69
55347;BME280;41218;55.700;38.270;2023-04-09T14:12:49;100806.81;;;14.32;39.54
55347;BME280;41218;55.700;38.270;2023-04-09T14:17:50;100792.75;;;14.25;39.83
55347;BME280;41218;55.700;38.270;2023-04-09T14:22:50;100797.47;;;14.21;39.85
55347;BME280;41218;55.700;38.270;2023-04-09T14:27:50;100795.00;;;14.16;40.15
55347;BME280;41218;55.700;38.270;2023-04-09T14:32:51;100793.31;;;14.11;39.90
55347;BME280;41218;55.700;38.270;2023-04-09T14:37:51;100788.38;;;14.01;39.81
55347;BME280;41218;55.700;38.270;2023-04-09T14:42:52;100788.66;;;13.96;40.05
55347;BME280;41218;55.700;38.270;2023-04-09T14:47:52;100775.19;;;13.78;40.56
55347;BME280;41218;55.700;38.270;2023-04-09T14:52:53;100786.91;;;13.88;40.73
55347;BME280;41218;55.700;38.270;2023-04-09T14:57:54;100795.75;;;13.74;41.55
55347;BME280;41218;55.700;38.270;2023-04-09T15:02:55;100787.22;;;13.63;41.82
55347;BME280;41218;55.700;38.270;2023-04-09T15:07:56;100791.03;;;13.55;42.36
55347;BME280;41218;55.700;38.270;2023-04-09T15:12:56;100786.47;;;13.47;42.62
55347;BME280;41218;55.700;38.270;2023-04-09T15:17:57;100791.88;;;13.39;43.03
55347;BME280;41218;55.700;38.270;2023-04-09T15:23:04;100778.81;;;13.24;43.46
55347;BME280;41218;55.700;38.270;2023-04-09T15:28:06;100779.91;;;13.19;44.17
55347;BME280;41218;55.700;38.270;2023-04-09T15:33:08;100780.81;;;13.08;44.06
55347;BME280;41218;55.700;38.270;2023-04-09T15:38:09;100770.91;;;12.91;44.32
55347;BME280;41218;55.700;38.270;2023-04-09T15:43:10;100768.00;;;12.83;44.72
55347;BME280;41218;55.700;38.270;2023-04-09T15:48:10;100777.31;;;12.75;45.14
55347;BME280;41218;55.700;38.270;2023-04-09T15:53:12;100769.00;;;12.59;45.31
55347;BME280;41218;55.700;38.270;2023-04-09T15:58:14;100769.09;;;12.47;45.41
55347;BME280;41218;55.700;38.270;2023-04-09T16:03:14;100771.56;;;12.36;46.01
55347;BME280;41218;55.700;38.270;2023-04-09T16:08:15;100762.00;;;12.18;46.17
55347;BME280;41218;55.700;38.270;2023-04-09T16:13:15;100768.53;;;12.10;46.69
55347;BME280;41218;55.700;38.270;2023-04-09T16:18:16;100780.56;;;12.01;46.83
55347;BME280;41218;55.700;38.270;2023-04-09T16:23:17;100773.81;;;11.87;47.21
55347;BME280;41218;55.700;38.270;2023-04-09T16:28:19;100775.47;;;11.75;47.47
55347;BME280;41218;55.700;38.270;2023-04-09T16:33:22;100781.97;;;11.67;47.83
55347;BME280;41218;55.700;38.270;2023-04-09T16:38:23;100788.47;;;11.59;47.92
55347;BME280;41218;55.700;38.270;2023-04-09T16:43:26;100782.16;;;11.46;48.40
55347;BME280;41218;55.700;38.270;2023-04-09T16:48:27;100781.94;;;11.39;48.47
55347;BME280;41218;55.700;38.270;2023-04-09T16:53:27;100787.97;;;11.29;49.09
55347;BME280;41218;55.700;38.270;2023-04-09T16:58:28;100790.06;;;11.19;48.95
55347;BME280;41218;55.700;38.270;2023-04-09T17:03:28;100790.09;;;11.07;49.33
55347;BME280;41218;55.700;38.270;2023-04-09T17:08:29;100793.09;;;11.02;49.47
55347;BME280;41218;55.700;38.270;2023-04-09T17:13:31;100795.16;;;10.93;49.66
55347;BME280;41218;55.700;38.270;2023-04-09T17:18:33;100801.59;;;10.85;49.91
55347;BME280;41218;55.700;38.270;2023-04-09T17:23:33;100792.97;;;10.74;50.11
55347;BME280;41218;55.700;38.270;2023-04-09T17:28:34;100805.09;;;10.69;50.52
55347;BME280;41218;55.700;38.270;2023-04-09T17:33:35;100798.38;;;10.58;50.77
55347;BME280;41218;55.700;38.270;2023-04-09T17:38:35;100804.94;;;10.53;50.54
55347;BME280;41218;55.700;38.270;2023-04-09T17:43:36;100797.91;;;10.43;50.69
55347;BME280;41218;55.700;38.270;2023-04-09T17:48:37;100797.88;;;10.31;51.14
55347;BME280;41218;55.700;38.270;2023-04-09T17:53:38;100801.53;;;10.23;51.19
55347;BME280;41218;55.700;38.270;2023-04-09T17:58:38;100796.31;;;10.09;51.33
55347;BME280;41218;55.700;38.270;2023-04-09T18:03:39;100807.44;;;10.00;51.65
55347;BME280;41218;55.700;38.270;2023-04-09T18:08:41;100816.16;;;9.90;51.71
55347;BME280;41218;55.700;38.270;2023-04-09T18:13:42;100808.63;;;9.78;51.81
55347;BME280;41218;55.700;38.270;2023-04-09T18:18:43;100813.75;;;9.68;51.75
55347;BME280;41218;55.700;38.270;2023-04-09T18:23:43;100804.94;;;9.53;52.15
55347;BME280;41218;55.700;38.270;2023-04-09T18:28:44;100806.16;;;9.43;52.32
55347;BME280;41218;55.700;38.270;2023-04-09T18:33:44;100792.16;;;9.28;52.27
55347;BME280;41218;55.700;38.270;2023-04-09T18:38:45;100800.34;;;9.15;52.33
55347;BME280;41218;55.700;38.270;2023-04-09T18:43:46;100795.69;;;9.07;52.61
55347;BME280;41218;55.700;38.270;2023-04-09T18:48:47;100803.41;;;8.93;52.59
55347;BME280;41218;55.700;38.270;2023-04-09T18:53:48;100815.81;;;8.78;52.86
55347;BME280;41218;55.700;38.270;2023-04-09T18:58:52;100810.16;;;8.66;53.16
55347;BME280;41218;55.700;38.270;2023-04-09T19:03:52;100813.28;;;8.55;53.07
55347;BME280;41218;55.700;38.270;2023-04-09T19:08:53;100811.25;;;8.44;53.17
55347;BME280;41218;55.700;38.270;2023-04-09T19:13:57;100805.56;;;8.31;53.21
55347;BME280;41218;55.700;38.270;2023-04-09T19:18:57;100804.63;;;8.18;53.09
55347;BME280;41218;55.700;38.270;2023-04-09T19:23:58;100806.13;;;8.07;53.33
55347;BME280;41218;55.700;38.270;2023-04-09T19:28:59;100803.53;;;8.02;53.37
55347;BME280;41218;55.700;38.270;2023-04-09T19:33:59;100801.16;;;7.83;53.31
55347;BME280;41218;55.700;38.270;2023-04-09T19:39:00;100798.41;;;7.66;53.51
55347;BME280;41218;55.700;38.270;2023-04-09T19:44:01;100787.25;;;7.45;53.79
55347;BME280;41218;55.700;38.270;2023-04-09T19:49:01;100809.56;;;7.43;53.63
55347;BME280;41218;55.700;38.270;2023-04-09T19:54:02;100802.25;;;7.30;54.02
55347;BME280;41218;55.700;38.270;2023-04-09T19:59:02;100809.38;;;7.22;54.06
55347;BME280;41218;55.700;38.270;2023-04-09T20:04:03;100807.09;;;7.15;54.08
55347;BME280;41218;55.700;38.270;2023-04-09T20:09:04;100803.53;;;7.06;54.37
55347;BME280;41218;55.700;38.270;2023-04-09T20:14:04;100809.34;;;6.96;54.41
55347;BME280;41218;55.700;38.270;2023-04-09T20:19:05;100795.22;;;6.80;54.33
55347;BME280;41218;55.700;38.270;2023-04-09T20:24:06;100809.28;;;6.78;54.24
55347;BME280;41218;55.700;38.270;2023-04-09T20:29:06;100806.00;;;6.68;54.23
55347;BME280;41218;55.700;38.270;2023-04-09T20:34:07;100807.13;;;6.67;54.55
55347;BME280;41218;55.700;38.270;2023-04-09T20:39:11;100813.56;;;6.53;54.64
55347;BME280;41218;55.700;38.270;2023-04-09T20:44:11;100807.84;;;6.41;54.55
55347;BME280;41218;55.700;38.270;2023-04-09T20:49:12;100812.97;;;6.34;54.52
55347;BME280;41218;55.700;38.270;2023-04-09T20:54:12;100816.78;;;6.24;54.90
55347;BME280;41218;55.700;38.270;2023-04-09T20:59:13;100815.94;;;6.15;54.94
55347;BME280;41218;55.700;38.270;2023-04-09T21:04:14;100817.00;;;6.05;54.91
55347;BME280;41218;55.700;38.270;2023-04-09T21:09:14;100815.59;;;5.94;54.96
55347;BME280;41218;55.700;38.270;2023-04-09T21:14:15;100814.44;;;5.86;55.14
55347;BME280;41218;55.700;38.270;2023-04-09T21:19:15;100818.03;;;5.73;55.15
55347;BME280;41218;55.700;38.270;2023-04-09T21:24:16;100830.06;;;5.63;55.40
55347;BME280;41218;55.700;38.270;2023-04-09T21:29:20;100820.13;;;5.53;55.48
55347;BME280;41218;55.700;38.270;2023-04-09T21:34:21;100817.94;;;5.41;55.43
55347;BME280;41218;55.700;38.270;2023-04-09T21:39:21;100816.44;;;5.35;55.25
55347;BME280;41218;55.700;38.270;2023-04-09T21:44:22;100813.59;;;5.27;55.37
55347;BME280;41218;55.700;38.270;2023-04-09T21:49:22;100806.72;;;5.15;55.57
55347;BME280;41218;55.700;38.270;2023-04-09T21:54:23;100820.53;;;5.10;55.64
55347;BME280;41218;55.700;38.270;2023-04-09T21:59:23;100822.91;;;5.03;55.64
55347;BME280;41218;55.700;38.270;2023-04-09T22:04:24;100822.47;;;4.96;55.64
55347;BME280;41218;55.700;38.270;2023-04-09T22:09:24;100824.00;;;4.88;55.78
55347;BME280;41218;55.700;38.270;2023-04-09T22:14:25;100820.03;;;4.80;55.79
55347;BME280;41218;55.700;38.270;2023-04-09T22:19:30;100821.59;;;4.73;56.18
55347;BME280;41218;55.700;38.270;2023-04-09T22:24:30;100815.19;;;4.64;56.09
55347;BME280;41218;55.700;38.270;2023-04-09T22:29:31;100817.81;;;4.55;56.21
55347;BME280;41218;55.700;38.270;2023-04-09T22:34:32;100804.31;;;4.45;56.30
55347;BME280;41218;55.700;38.270;2023-04-09T22:39:32;100806.84;;;4.41;56.06
55347;BME280;41218;55.700;38.270;2023-04-09T22:44:33;100799.94;;;4.30;56.11
55347;BME280;41218;55.700;38.270;2023-04-09T22:49:33;100801.47;;;4.22;55.97
55347;BME280;41218;55.700;38.270;2023-04-09T22:54:34;100798.50;;;4.18;56.44
55347;BME280;41218;55.700;38.270;2023-04-09T22:59:34;100782.28;;;4.08;56.37
55347;BME280;41218;55.700;38.270;2023-04-09T23:04:35;100788.34;;;4.05;56.32
55347;BME280;41218;55.700;38.270;2023-04-09T23:09:35;100799.16;;;3.96;56.39
55347;BME280;41218;55.700;38.270;2023-04-09T23:14:36;100801.38;;;3.94;56.54
55347;BME280;41218;55.700;38.270;2023-04-09T23:19:36;100801.47;;;3.89;56.34
55347;BME280;41218;55.700;38.270;2023-04-09T23:24:37;100791.53;;;3.79;56.25
55347;BME280;41218;55.700;38.270;2023-04-09T23:29:38;100791.09;;;3.72;56.66
55347;BME280;41218;55.700;38.270;2023-04-09T23:34:39;100792.56;;;3.65;56.29
55347;BME280;41218;55.700;38.270;2023-04-09T23:39:39;100803.31;;;3.61;56.73
55347;BME280;41218;55.700;38.270;2023-04-09T23:44:40;100794.38;;;3.55;56.43
55347;BME280;41218;55.700;38.270;2023-04-09T23:49:43;100796.13;;;3.46;56.68
55347;BME280;41218;55.700;38.270;2023-04-09T23:54:48;100797.53;;;3.44;56.77
55347;BME280;41218;55.700;38.270;2023-04-09T23:59:50;100791.09;;;3.34;56.68
